< Cyclone 200504 2005 Season Cyclone 200506 >
Cyclone 200505 (HARVEY)
General InformationDetailed Track InformationTrack Information on Google MapsList of All Images || ResourceGoogle EarthGE AnimationAtom FeedGeoJSON
Detalied Best Track Wind (Time Zone = UTC)
Year Month Day Hour Lat. Long. Wind (kt) Gust (kt) Direc. of Major Storm Axis Radius of Major Storm Axis (nm) Radius of Minor Storm Axis (nm) Direc. of Major Gale Axis Radius of Major Gale Axis (nm) Radius of Minor Gale Axis (nm) Image
2005 2 3 12 -13.9 135.8 20 -1 symmetric - - symmetric - - Image
2005 2 3 18 -13.4 136.8 20 -1 symmetric - - symmetric - - Image
2005 2 4 00 -12.9 137.0 20 -1 symmetric - - symmetric - - Image
2005 2 4 06 -12.9 137.0 20 -1 symmetric - - symmetric - - Image
2005 2 4 12 -12.9 138.5 20 -1 symmetric - - symmetric - - Image
2005 2 4 18 -13.1 139.0 25 -1 symmetric - - symmetric - - Image
2005 2 5 00 -13.4 139.5 30 -1 symmetric - - symmetric - - Image
2005 2 5 06 -13.7 140.0 30 -1 symmetric - - symmetric - - Image
2005 2 5 12 -14.0 140.0 32 -1 symmetric - - symmetric - - Image
2005 2 5 18 -13.9 140.0 32 -1 symmetric - - symmetric - - Image
2005 2 6 00 -13.9 139.7 35 -1 symmetric - - symmetric - - Image
2005 2 6 06 -14.5 139.7 40 -1 symmetric - - symmetric - - Image
2005 2 6 12 -14.5 139.3 40 -1 symmetric - - symmetric - - Image
2005 2 6 18 -14.9 139.3 45 -1 symmetric - - symmetric - - Image
2005 2 7 00 -15.6 138.8 55 -1 symmetric - - symmetric - - Image
2005 2 7 06 -16.1 138.1 65 -1 symmetric - - symmetric - - Image
2005 2 7 08 -16.4 137.7 70 -1 symmetric - - symmetric - - Image
2005 2 7 12 -16.6 137.2 55 -1 symmetric - - symmetric - - Image
2005 2 7 15 -16.7 137.2 40 -1 symmetric - - symmetric - - Image
2005 2 7 18 -16.8 137.1 30 -1 symmetric - - symmetric - - Image
< Cyclone 200504 2005 Season Cyclone 200506 >

Help